createdAt,value
2018-04-18T00:01:17.673Z,17.00
2018-04-18T00:03:45.208Z,17.20
2018-04-18T00:06:13.482Z,17.83
2018-04-18T00:08:40.998Z,17.40
2018-04-18T00:11:08.542Z,16.60
2018-04-18T00:13:36.819Z,16.57
2018-04-18T00:16:04.363Z,18.10
2018-04-18T00:18:31.871Z,18.57
2018-04-18T00:20:59.416Z,17.47
2018-04-18T00:23:26.928Z,18.00
2018-04-18T00:25:54.479Z,17.70
2018-04-18T00:28:21.994Z,18.43
2018-04-18T00:30:49.538Z,17.80
2018-04-18T00:33:17.048Z,18.93
2018-04-18T00:35:44.589Z,17.17
2018-04-18T00:38:12.096Z,18.13
2018-04-18T00:40:39.630Z,18.10
2018-04-18T00:43:07.143Z,17.87
2018-04-18T00:45:34.713Z,19.10
2018-04-18T00:48:02.232Z,17.30
2018-04-18T00:50:29.769Z,18.17
2018-04-18T00:52:57.283Z,18.33
2018-04-18T00:55:24.834Z,17.80
2018-04-18T00:57:52.359Z,17.40
2018-04-18T01:00:19.895Z,17.10
2018-04-18T01:02:47.399Z,16.33
2018-04-18T01:05:14.952Z,18.27
2018-04-18T01:07:42.455Z,17.40
2018-04-18T01:10:11.787Z,17.70
2018-04-18T01:12:39.283Z,16.70
2018-04-18T01:15:06.803Z,16.90
2018-04-18T01:17:34.338Z,16.27
2018-04-18T01:20:01.859Z,17.00
2018-04-18T01:22:29.401Z,16.83
2018-04-18T01:24:56.911Z,17.77
2018-04-18T01:27:24.455Z,16.83
2018-04-18T01:29:51.965Z,17.30
2018-04-18T01:32:19.507Z,16.80
2018-04-18T01:34:47.785Z,17.27
2018-04-18T01:37:16.109Z,16.47
2018-04-18T01:39:43.622Z,16.90
2018-04-18T01:42:11.950Z,16.37
2018-04-18T01:44:40.231Z,17.73
2018-04-18T01:47:07.775Z,17.03
2018-04-18T01:49:35.288Z,16.43
2018-04-18T01:52:03.607Z,16.50
2018-04-18T01:54:31.559Z,17.47
2018-04-18T01:56:59.123Z,17.70
2018-04-18T01:59:26.639Z,18.13
2018-04-18T02:01:54.947Z,16.97
2018-04-18T02:04:22.457Z,17.43
2018-04-18T02:06:50.000Z,17.53
2018-04-18T02:09:17.499Z,17.57
2018-04-18T02:11:45.049Z,16.83
2018-04-18T02:14:12.554Z,17.70
2018-04-18T02:16:40.126Z,15.47
2018-04-18T02:19:07.637Z,17.50
2018-04-18T02:21:35.904Z,16.90
2018-04-18T02:24:03.449Z,16.50
2018-04-18T02:26:30.963Z,16.63
2018-04-18T02:28:58.508Z,18.17
2018-04-18T02:31:26.052Z,17.53
2018-04-18T02:33:53.608Z,18.20
2018-04-18T02:36:21.899Z,17.23
2018-04-18T02:38:50.199Z,17.47
2018-04-18T02:41:17.704Z,17.57
2018-04-18T02:43:45.235Z,17.70
2018-04-18T02:46:12.759Z,17.97
2018-04-18T02:48:40.305Z,18.60
2018-04-18T02:51:07.816Z,17.50
2018-04-18T02:53:35.365Z,17.47
2018-04-18T02:56:02.881Z,19.00
2018-04-18T02:58:30.423Z,19.13
2018-04-18T03:00:57.944Z,19.60
2018-04-18T03:03:25.464Z,19.80
2018-04-18T03:05:53.002Z,19.87
2018-04-18T03:08:21.272Z,21.57
2018-04-18T03:10:48.855Z,20.07
2018-04-18T03:13:16.364Z,19.80
2018-04-18T03:15:43.900Z,20.10
2018-04-18T03:18:11.407Z,18.50
2018-04-18T03:20:38.968Z,20.10
2018-04-18T03:23:06.482Z,20.17
2018-04-18T03:25:34.017Z,21.53
2018-04-18T03:28:01.529Z,19.80
2018-04-18T03:30:29.076Z,21.20
2018-04-18T03:32:58.228Z,20.70
2018-04-18T03:35:25.776Z,21.53
2018-04-18T03:37:53.295Z,22.17
2018-04-18T03:40:20.892Z,23.57
2018-04-18T03:42:48.395Z,22.40
2018-04-18T03:45:17.855Z,21.27
2018-04-18T03:47:45.661Z,22.10
2018-04-18T03:50:13.405Z,22.63
2018-04-18T03:52:41.158Z,23.33
2018-04-18T03:55:08.966Z,22.93
2018-04-18T03:57:36.757Z,24.00
2018-04-18T04:00:04.631Z,23.03
2018-04-18T04:02:32.472Z,22.77
2018-04-18T04:05:00.205Z,23.23
2018-04-18T04:07:27.997Z,24.43
2018-04-18T04:09:56.543Z,23.37
2018-04-18T04:12:24.402Z,24.50
2018-04-18T04:14:52.189Z,25.70
2018-04-18T04:17:32.252Z,24.50
2018-04-18T04:20:11.785Z,24.30
2018-04-18T04:22:51.378Z,22.57
2018-04-18T04:25:19.230Z,25.73
2018-04-18T04:27:47.039Z,26.00
2018-04-18T04:30:14.846Z,24.50
2018-04-18T04:32:42.500Z,24.03
2018-04-18T04:35:10.236Z,24.23
2018-04-18T04:37:37.992Z,24.13
2018-04-18T04:40:06.458Z,25.30
2018-04-18T04:42:34.242Z,26.23
2018-04-18T04:45:01.937Z,25.63
2018-04-18T04:47:32.619Z,25.67
2018-04-18T04:50:00.459Z,25.43
2018-04-18T04:52:28.296Z,23.60
2018-04-18T04:54:56.123Z,25.67
2018-04-18T04:57:24.555Z,27.03
2018-04-18T04:59:52.172Z,27.63
2018-04-18T05:02:19.922Z,26.10
2018-04-18T05:04:47.583Z,25.40
2018-04-18T05:07:15.377Z,25.80
2018-04-18T05:09:43.575Z,23.67
2018-04-18T05:12:11.337Z,26.77
2018-04-18T05:14:39.085Z,25.43
2018-04-18T05:17:06.771Z,23.13
2018-04-18T05:19:34.723Z,21.50
2018-04-18T05:22:02.417Z,25.73
2018-04-18T05:24:30.882Z,23.50
2018-04-18T05:26:58.486Z,26.07
2018-04-18T05:29:26.272Z,23.33
2018-04-18T05:31:54.010Z,25.87
2018-04-18T05:34:21.731Z,22.43
2018-04-18T05:36:49.364Z,26.70
2018-04-18T05:39:17.056Z,29.03
2018-04-18T05:41:45.570Z,27.50
2018-04-18T05:44:13.313Z,29.50
2018-04-18T05:46:40.995Z,27.40
2018-04-18T05:49:09.521Z,28.93
2018-04-18T05:51:37.199Z,29.17
2018-04-18T05:54:04.912Z,28.17
2018-04-18T05:56:33.304Z,28.80
2018-04-18T05:59:01.048Z,28.97
2018-04-18T06:01:28.739Z,28.10
2018-04-18T06:03:56.633Z,28.83
2018-04-18T06:06:24.564Z,26.83
2018-04-18T06:08:52.411Z,27.43
2018-04-18T06:11:20.311Z,27.60
2018-04-18T06:13:48.163Z,27.13
2018-04-18T06:16:15.843Z,27.37
2018-04-18T06:18:43.542Z,27.23
2018-04-18T06:21:11.266Z,26.97
2018-04-18T06:23:39.798Z,27.23
2018-04-18T06:26:07.531Z,26.17
2018-04-18T06:28:35.184Z,26.43
2018-04-18T06:31:04.211Z,26.60
2018-04-18T06:33:31.980Z,25.37
2018-04-18T06:35:59.780Z,25.90
2018-04-18T06:38:27.449Z,25.23
2018-04-18T06:40:55.298Z,24.37
2018-04-18T06:43:23.140Z,25.43
2018-04-18T06:45:51.003Z,24.67
2018-04-18T06:48:18.856Z,26.60
2018-04-18T06:50:46.677Z,25.13
2018-04-18T06:53:14.345Z,23.87
2018-04-18T06:55:42.127Z,23.77
2018-04-18T06:58:09.994Z,23.90
2018-04-18T07:00:37.960Z,23.97
2018-04-18T07:03:05.746Z,23.23
2018-04-18T07:05:33.374Z,23.60
2018-04-18T07:08:01.147Z,23.30
2018-04-18T07:10:29.023Z,23.23
2018-04-18T07:12:57.790Z,21.83
2018-04-18T07:15:25.426Z,22.53
2018-04-18T07:17:53.121Z,22.77
2018-04-18T07:20:20.877Z,22.87
2018-04-18T07:22:49.433Z,23.60
2018-04-18T07:25:16.973Z,22.53
2018-04-18T07:27:44.535Z,24.33
2018-04-18T07:30:12.069Z,23.47
2018-04-18T07:32:39.638Z,23.70
2018-04-18T07:35:08.365Z,22.33
2018-04-18T07:37:36.164Z,21.73
2018-04-18T07:40:03.851Z,23.53
2018-04-18T07:42:31.522Z,22.07
2018-04-18T07:44:59.206Z,22.73
2018-04-18T07:47:26.937Z,22.57
2018-04-18T07:49:54.649Z,22.60
2018-04-18T07:52:22.459Z,22.93
2018-04-18T07:54:50.605Z,21.53
2018-04-18T07:57:18.599Z,21.47
2018-04-18T07:59:46.342Z,20.17
2018-04-18T08:02:18.199Z,22.00
2018-04-18T08:04:45.997Z,21.33
2018-04-18T08:07:13.665Z,21.40
2018-04-18T08:09:42.328Z,20.03
2018-04-18T08:12:10.266Z,19.67
2018-04-18T08:14:38.069Z,19.13
2018-04-18T08:17:05.895Z,19.07
2018-04-18T08:19:33.840Z,19.87
2018-04-18T08:22:01.669Z,19.40
2018-04-18T08:24:29.593Z,19.07
2018-04-18T08:26:57.701Z,19.47
2018-04-18T08:29:25.617Z,17.60
2018-04-18T08:31:53.560Z,18.43
2018-04-18T08:34:21.521Z,17.07
2018-04-18T08:36:49.339Z,17.20
2018-04-18T08:39:19.634Z,17.20
2018-04-18T08:41:47.208Z,16.87
2018-04-18T08:44:15.763Z,17.73
2018-04-18T08:46:43.566Z,18.20
2018-04-18T08:49:12.309Z,17.07
2018-04-18T08:51:40.189Z,17.37
2018-04-18T08:54:07.999Z,16.27
2018-04-18T08:56:35.898Z,14.87
2018-04-18T08:59:03.809Z,13.63
2018-04-18T09:01:31.595Z,12.87
2018-04-18T09:04:00.137Z,13.67
2018-04-18T09:06:28.187Z,12.43
2018-04-18T09:08:56.087Z,13.73
2018-04-18T09:11:23.917Z,12.27
2018-04-18T09:13:52.183Z,13.63
2018-04-18T09:16:19.902Z,12.27
2018-04-18T09:18:47.503Z,12.13
2018-04-18T09:21:15.895Z,9.83
2018-04-18T09:23:43.522Z,11.07
2018-04-18T09:26:11.248Z,9.20
2018-04-18T09:28:39.183Z,12.60
2018-04-18T09:31:07.055Z,12.00
2018-04-18T09:33:34.905Z,11.77
2018-04-18T09:36:02.817Z,10.73
2018-04-18T09:38:30.771Z,11.67
2018-04-18T09:40:59.139Z,12.23
2018-04-18T09:43:26.887Z,11.10
2018-04-18T09:45:54.597Z,11.50
2018-04-18T09:48:22.281Z,11.93
2018-04-18T09:50:50.776Z,11.87
2018-04-18T09:53:18.678Z,11.23
2018-04-18T09:55:46.384Z,10.17
2018-04-18T09:58:14.203Z,9.80
2018-04-18T10:00:47.593Z,10.90
2018-04-18T10:03:15.333Z,9.73
2018-04-18T10:05:43.302Z,9.67
2018-04-18T10:08:11.786Z,10.50
2018-04-18T10:10:39.468Z,9.97
2018-04-18T10:13:07.258Z,9.90
2018-04-18T10:15:35.084Z,10.47
2018-04-18T10:18:02.832Z,10.77
2018-04-18T10:20:31.412Z,9.93
2018-04-18T10:22:59.263Z,9.27
2018-04-18T10:25:26.985Z,10.20
2018-04-18T10:27:54.579Z,11.63
2018-04-18T10:30:22.340Z,12.30
2018-04-18T10:32:50.063Z,11.37
2018-04-18T10:35:17.827Z,11.83
2018-04-18T10:37:45.757Z,11.37
2018-04-18T10:40:13.456Z,12.70
2018-04-18T10:42:41.109Z,12.40
2018-04-18T10:45:08.796Z,12.50
2018-04-18T10:47:36.635Z,12.10
2018-04-18T10:50:04.419Z,11.33
2018-04-18T10:52:32.247Z,11.80
2018-04-18T10:54:59.909Z,12.93
2018-04-18T10:57:27.493Z,11.57
2018-04-18T10:59:55.931Z,11.97
2018-04-18T11:02:23.602Z,11.70
2018-04-18T11:04:51.328Z,11.83
2018-04-18T11:07:19.755Z,12.43
2018-04-18T11:09:47.464Z,13.67
2018-04-18T11:12:15.190Z,12.17
2018-04-18T11:14:42.932Z,12.47
2018-04-18T11:17:10.608Z,13.67
2018-04-18T11:19:38.426Z,13.30
2018-04-18T11:22:06.229Z,13.10
2018-04-18T11:24:34.050Z,13.30
2018-04-18T11:27:01.887Z,13.03
2018-04-18T11:29:29.533Z,11.57
2018-04-18T11:31:57.223Z,13.13
2018-04-18T11:34:24.804Z,12.83
2018-04-18T11:36:52.469Z,12.50
2018-04-18T11:39:20.418Z,9.73
2018-04-18T11:41:48.103Z,10.70
2018-04-18T11:44:16.021Z,10.97
2018-04-18T11:46:44.311Z,11.03
2018-04-18T11:49:11.920Z,13.10
2018-04-18T11:51:39.638Z,11.23
2018-04-18T11:54:07.525Z,11.30
2018-04-18T11:56:36.079Z,11.00
2018-04-18T11:59:04.551Z,9.57
2018-04-18T12:01:32.614Z,9.43
2018-04-18T12:04:00.550Z,8.23
2018-04-18T12:06:28.347Z,7.27
2018-04-18T12:08:56.226Z,7.53
2018-04-18T12:11:24.018Z,7.43
2018-04-18T12:13:51.763Z,5.47
2018-04-18T12:16:19.620Z,5.57
2018-04-18T12:18:47.459Z,6.67
2018-04-18T12:21:15.304Z,7.43
2018-04-18T12:23:43.817Z,6.10
2018-04-18T12:26:11.976Z,6.40
2018-04-18T12:28:39.765Z,6.03
2018-04-18T12:31:07.358Z,5.30
2018-04-18T12:33:35.052Z,5.93
2018-04-18T12:36:03.046Z,5.70
2018-04-18T12:38:34.462Z,6.27
2018-04-18T12:41:02.525Z,6.87
2018-04-18T12:43:30.294Z,6.57
2018-04-18T12:45:58.044Z,6.37
2018-04-18T12:48:25.749Z,7.07
2018-04-18T12:50:53.435Z,6.10
2018-04-18T12:53:21.140Z,6.70
2018-04-18T12:55:48.796Z,6.47
2018-04-18T12:58:19.172Z,6.03
2018-04-18T13:00:46.989Z,6.93
2018-04-18T13:03:14.679Z,5.73
2018-04-18T13:05:42.457Z,5.33
2018-04-18T13:08:10.036Z,4.67
2018-04-18T13:10:38.012Z,5.57
2018-04-18T13:13:05.731Z,4.93
2018-04-18T13:15:33.518Z,5.13
2018-04-18T13:18:01.444Z,5.57
2018-04-18T13:20:29.904Z,5.80
2018-04-18T13:22:57.671Z,5.67
2018-04-18T13:25:25.443Z,5.63
2018-04-18T13:27:53.128Z,5.70
2018-04-18T13:30:21.622Z,6.30
2018-04-18T13:32:50.470Z,5.80
2018-04-18T13:35:18.984Z,5.23
2018-04-18T13:37:46.657Z,4.93
2018-04-18T13:40:14.475Z,4.53
2018-04-18T13:42:42.347Z,5.07
2018-04-18T13:45:10.042Z,5.60
2018-04-18T13:47:37.785Z,4.80
2018-04-18T13:50:05.407Z,4.17
2018-04-18T13:52:33.139Z,3.57
2018-04-18T13:55:00.964Z,4.67
2018-04-18T13:57:28.857Z,5.47
2018-04-18T13:59:56.753Z,4.87
2018-04-18T14:02:24.395Z,4.77
2018-04-18T14:04:52.178Z,3.90
2018-04-18T14:07:20.009Z,3.90
2018-04-18T14:09:47.752Z,4.07
2018-04-18T14:12:15.525Z,4.73
2018-04-18T14:14:43.915Z,4.37
2018-04-18T14:17:11.809Z,3.93
2018-04-18T14:19:39.516Z,4.60
2018-04-18T14:22:07.972Z,4.40
2018-04-18T14:24:35.684Z,4.30
2018-04-18T14:27:04.314Z,4.53
2018-04-18T14:29:32.125Z,4.73
2018-04-18T14:32:00.081Z,4.50
2018-04-18T14:34:27.624Z,4.10
2018-04-18T14:36:55.367Z,4.03
2018-04-18T14:39:23.068Z,4.70
2018-04-18T14:41:50.765Z,3.90
2018-04-18T14:44:18.663Z,4.63
2018-04-18T14:46:46.647Z,5.37
2018-04-18T14:49:15.444Z,4.23
2018-04-18T14:51:43.527Z,4.03
2018-04-18T14:54:11.199Z,3.97
2018-04-18T14:56:38.974Z,4.40
2018-04-18T14:59:08.582Z,4.40
2018-04-18T15:01:36.402Z,4.10
2018-04-18T15:04:04.252Z,4.17
2018-04-18T15:06:32.059Z,4.93
2018-04-18T15:08:59.868Z,4.47
2018-04-18T15:11:27.459Z,4.47
2018-04-18T15:13:55.547Z,4.23
2018-04-18T15:16:23.144Z,4.27
2018-04-18T15:18:50.897Z,4.00
2018-04-18T15:21:18.539Z,3.93
2018-04-18T15:23:46.444Z,4.13
2018-04-18T15:26:14.277Z,3.70
2018-04-18T15:28:42.736Z,3.80
2018-04-18T15:31:10.328Z,3.30
2018-04-18T15:33:46.239Z,4.13
2018-04-18T15:36:14.003Z,3.97
2018-04-18T15:38:41.663Z,3.77
2018-04-18T15:41:09.384Z,4.20
2018-04-18T15:43:37.064Z,3.60
2018-04-18T15:46:04.928Z,4.10
2018-04-18T15:48:33.328Z,4.00
2018-04-18T15:51:01.054Z,3.90
2018-04-18T15:53:29.539Z,4.23
2018-04-18T15:55:57.394Z,4.03
2018-04-18T15:58:25.165Z,4.37
2018-04-18T16:00:52.934Z,3.77
2018-04-18T16:03:20.706Z,3.70
2018-04-18T16:05:48.442Z,3.27
2018-04-18T16:08:16.099Z,3.27
2018-04-18T16:10:43.668Z,3.77
2018-04-18T16:13:11.244Z,3.47
2018-04-18T16:15:38.838Z,3.83
2018-04-18T16:18:06.415Z,3.57
2018-04-18T16:20:34.053Z,3.50
2018-04-18T16:23:02.534Z,3.83
2018-04-18T16:25:30.845Z,3.90
2018-04-18T16:27:58.482Z,3.90
2018-04-18T16:30:38.753Z,4.33
2018-04-18T16:33:06.427Z,3.60
2018-04-18T16:35:34.085Z,3.50
2018-04-18T16:38:01.663Z,3.63
2018-04-18T16:40:29.342Z,3.20
2018-04-18T16:42:56.951Z,3.40
2018-04-18T16:45:24.519Z,3.40
2018-04-18T16:47:52.126Z,3.40
2018-04-18T16:50:19.690Z,3.67
2018-04-18T16:52:47.293Z,3.10
2018-04-18T16:55:14.836Z,3.63
2018-04-18T16:57:42.461Z,3.57
2018-04-18T17:00:10.034Z,3.60
2018-04-18T17:02:37.644Z,3.10
2018-04-18T17:05:06.060Z,3.33
2018-04-18T17:07:33.791Z,3.63
2018-04-18T17:10:01.398Z,3.60
2018-04-18T17:12:28.965Z,3.20
2018-04-18T17:14:57.316Z,3.40
2018-04-18T17:17:24.906Z,3.40
2018-04-18T17:19:52.488Z,3.10
2018-04-18T17:22:20.082Z,3.30
2018-04-18T17:24:47.654Z,3.43
2018-04-18T17:27:15.423Z,3.70
2018-04-18T17:29:43.033Z,3.47
2018-04-18T17:32:10.638Z,3.20
2018-04-18T17:34:38.257Z,3.30
2018-04-18T17:37:06.807Z,3.57
2018-04-18T17:39:35.134Z,3.60
2018-04-18T17:42:05.689Z,3.60
2018-04-18T17:44:34.084Z,5.13
2018-04-18T17:47:01.775Z,6.90
2018-04-18T17:49:29.428Z,7.00
2018-04-18T17:51:56.953Z,12.50
2018-04-18T17:54:25.331Z,19.20
2018-04-18T17:56:53.619Z,16.53
2018-04-18T17:59:21.182Z,13.93
2018-04-18T18:01:49.491Z,12.20
2018-04-18T18:04:17.038Z,10.83
2018-04-18T18:06:44.558Z,9.47
2018-04-18T18:09:12.069Z,9.77
2018-04-18T18:11:39.611Z,7.97
2018-04-18T18:14:07.143Z,7.77
2018-04-18T18:16:34.680Z,8.17
2018-04-18T18:19:02.201Z,7.90
2018-04-18T18:21:29.749Z,8.00
2018-04-18T18:23:57.262Z,7.27
2018-04-18T18:26:24.787Z,7.37
2018-04-18T18:28:52.304Z,6.37
2018-04-18T18:31:19.863Z,5.67
2018-04-18T18:33:47.377Z,4.40
2018-04-18T18:36:14.923Z,5.10
2018-04-18T18:38:42.425Z,4.07
2018-04-18T18:41:09.963Z,4.10
2018-04-18T18:43:37.473Z,4.37
2018-04-18T18:46:05.004Z,5.17
2018-04-18T18:48:32.521Z,4.27
2018-04-18T18:51:00.059Z,4.10
2018-04-18T18:53:27.573Z,4.07
2018-04-18T18:55:55.111Z,4.00
2018-04-18T18:58:23.367Z,3.73
2018-04-18T19:00:50.900Z,3.77
2018-04-18T19:03:18.426Z,3.70
2018-04-18T19:05:45.989Z,3.73
2018-04-18T19:08:13.509Z,3.93
2018-04-18T19:10:41.832Z,4.47
2018-04-18T19:13:09.346Z,4.03
2018-04-18T19:15:36.954Z,4.13
2018-04-18T19:18:05.186Z,4.00
2018-04-18T19:20:33.522Z,4.50
2018-04-18T19:23:01.029Z,4.03
2018-04-18T19:25:28.548Z,3.93
2018-04-18T19:27:56.090Z,4.10
2018-04-18T19:30:23.597Z,3.83
2018-04-18T19:32:51.241Z,4.03
2018-04-18T19:35:18.826Z,3.93
2018-04-18T19:37:47.240Z,4.57
2018-04-18T19:40:14.897Z,4.70
2018-04-18T19:42:42.519Z,4.30
2018-04-18T19:45:10.095Z,4.47
2018-04-18T19:47:37.746Z,4.17
2018-04-18T19:50:06.083Z,4.23
2018-04-18T19:52:33.672Z,4.57
2018-04-18T19:55:01.204Z,4.80
2018-04-18T19:57:28.796Z,4.90
2018-04-18T19:59:57.120Z,5.50
2018-04-18T20:02:24.682Z,5.00
2018-04-18T20:04:52.332Z,4.93
2018-04-18T20:07:19.889Z,4.57
2018-04-18T20:09:47.492Z,5.40
2018-04-18T20:12:15.827Z,4.73
2018-04-18T20:14:43.409Z,5.00
2018-04-18T20:17:10.955Z,5.30
2018-04-18T20:19:38.577Z,5.50
2018-04-18T20:22:06.991Z,4.73
2018-04-18T20:24:34.560Z,5.13
2018-04-18T20:27:02.125Z,5.07
2018-04-18T20:29:29.700Z,5.40
2018-04-18T20:31:57.319Z,5.27
2018-04-18T20:34:24.935Z,5.83
2018-04-18T20:36:52.512Z,5.23
2018-04-18T20:39:20.439Z,5.03
2018-04-18T20:41:54.813Z,5.27
2018-04-18T20:44:22.388Z,5.17
2018-04-18T20:46:49.957Z,5.57
2018-04-18T20:49:17.521Z,5.07
2018-04-18T20:51:45.093Z,5.00
2018-04-18T20:54:12.663Z,5.20
2018-04-18T20:56:40.281Z,5.40
2018-04-18T20:59:07.813Z,5.30
2018-04-18T21:01:35.371Z,5.23
2018-04-18T21:04:02.917Z,5.23
2018-04-18T21:06:30.468Z,5.43
2018-04-18T21:08:57.992Z,5.30
2018-04-18T21:11:25.537Z,5.37
2018-04-18T21:13:53.065Z,5.03
2018-04-18T21:16:20.701Z,5.17
2018-04-18T21:18:48.254Z,5.33
2018-04-18T21:21:16.500Z,5.50
2018-04-18T21:23:44.075Z,5.50
2018-04-18T21:26:11.672Z,5.40
2018-04-18T21:28:39.276Z,5.90
2018-04-18T21:31:06.897Z,5.43
2018-04-18T21:33:34.469Z,5.33
2018-04-18T21:36:02.067Z,5.73
2018-04-18T21:38:29.660Z,5.80
2018-04-18T21:40:57.177Z,6.07
2018-04-18T21:43:25.507Z,5.57
2018-04-18T21:45:53.029Z,5.67
2018-04-18T21:48:20.585Z,5.93
2018-04-18T21:50:48.173Z,6.27
2018-04-18T21:53:15.736Z,6.27
2018-04-18T21:55:43.257Z,6.00
2018-04-18T21:58:10.875Z,6.00
2018-04-18T22:00:38.398Z,5.20
2018-04-18T22:03:05.979Z,6.10
2018-04-18T22:05:33.527Z,5.73
2018-04-18T22:08:01.109Z,6.33
2018-04-18T22:10:28.662Z,6.07
2018-04-18T22:12:57.003Z,5.87
2018-04-18T22:15:24.538Z,5.60
2018-04-18T22:17:52.119Z,5.90
2018-04-18T22:20:19.682Z,6.23
2018-04-18T22:22:47.276Z,6.20
2018-04-18T22:25:14.845Z,7.43
2018-04-18T22:27:42.416Z,6.33
2018-04-18T22:30:10.099Z,6.90
2018-04-18T22:32:37.654Z,6.40
2018-04-18T22:35:05.992Z,6.83
2018-04-18T22:37:33.549Z,6.23
2018-04-18T22:40:01.162Z,6.60
2018-04-18T22:42:28.695Z,6.57
2018-04-18T22:44:56.300Z,6.90
2018-04-18T22:47:23.859Z,6.60
2018-04-18T22:49:51.395Z,6.97
2018-04-18T22:52:18.927Z,6.73
2018-04-18T22:54:46.480Z,6.77
2018-04-18T22:57:14.030Z,7.23
2018-04-18T22:59:41.620Z,7.20
2018-04-18T23:02:09.132Z,6.70
2018-04-18T23:04:36.796Z,7.80
2018-04-18T23:07:04.305Z,7.47
2018-04-18T23:09:31.902Z,7.40
2018-04-18T23:11:59.449Z,7.10
2018-04-18T23:14:27.042Z,7.17
2018-04-18T23:16:54.627Z,7.50
2018-04-18T23:19:22.338Z,7.13
2018-04-18T23:21:49.892Z,7.37
2018-04-18T23:24:17.442Z,6.77
2018-04-18T23:26:45.051Z,7.37
2018-04-18T23:29:12.656Z,7.93
2018-04-18T23:31:40.971Z,6.73
2018-04-18T23:34:08.486Z,6.50
2018-04-18T23:36:36.020Z,7.17
2018-04-18T23:39:03.560Z,7.57
2018-04-18T23:41:31.135Z,7.87
2018-04-18T23:43:58.664Z,7.53
2018-04-18T23:46:26.256Z,7.30
2018-04-18T23:48:53.821Z,7.17
2018-04-18T23:51:21.384Z,7.00
2018-04-18T23:53:49.784Z,7.20
2018-04-18T23:56:17.344Z,7.60
2018-04-18T23:58:45.685Z,7.50
